Main page
METAR-TAF:

METAR-TAF

Airports :

Military air base

Tulln an der Donau, Austria

latitude: 48-19N, longitude: 016-07E, elevation: 175 m

METAR: missing

Time: 00:17 (23:17 UTC)

Forecast

The report was made 9 hours and 2 minutes ago, at 14:15 UTC
Forecast valid from 21 at 15 UTC to 21 at 24 UTC
Wind 4 kt from the Northeast
Visibility: 7000 m
Few clouds at a height of 800 ft
Broken clouds at a height of 1500 ft
Temporary
from 21 at 15 UTC to 21 at 24 UTC
Visibility: 4000 m
Broken clouds at a height of 800 ft
mist

TAF: LOXT 211415Z 2115/2124 05004KT 7000 FEW008 BKN015 TEMPO 2115/2124 4000 BR BKN008

Weather observations and forecasts of more than 4000 airports (METAR and TAF reports).

The available stations are represented by yellow and red dots on the map.

Hover mouse over dot to see the name of the station.

Then click to see weather observations and forecasts.

To change the map : click on the green buttons with a black cross to zoom in, on the green button with a dash to zoom out, or on the green arrows for adjacent maps.


METAR-TAF: